Impacts TAF Board INFO
FOR SITUATIONAL AWARENESS. NOT TO BE USED FOR FLIGHT PLANNING PURPOSES.
IDs:

KSFO - San Francisco Intl, CA, US

Issued at 1743 UTC 25 Feb 2018
Updated at 1943 UTC 25 Feb 2018
Potential Impact None Slight Moderate High
Time1856Z 25/20Z 25/21Z 25/22Z 25/23Z 26/00Z 26/01Z 26/02Z 26/03Z 26/04Z 26/05Z 26/06Z 26/07Z 26/08Z>>
Type OBS PRVL PRVL PRVL PRVL PRVL PRVL PRVL PRVL PRVL PRVL PRVL PRVL PRVL
VIS 10 >6 >6 >6 >6 >6 >6 >6 >6 >6 >6 >6 >6 >6
CIG -- -- -- -- -- -- -- -- -- -- 20 20 20 20
Cover FEW SKC SKC SKC SKC SKC SKC SKC SCT SCT BKN BKN BKN BKN
FltCat VFR VFR VFR VFR VFR VFR VFR VFR VFR VFR MVFR MVFR MVFR MVFR
WX -- -- -- -- -- -- -- -- -- -- -- -- -- --
WDir 40 270 270 280 280 280 280 280 270 270 260 260 260 260
WSpd 6 7 7 15 15 15 15 15 13 13 10 10 10 10
WGst -- -- -- -- -- -- -- -- -- -- -- -- -- --

Raw TAF
KSFO 251743Z 2518/2624 VRB04KT P6SM SKC
  FM251900 27007KT P6SM SKC
  FM252200 28015KT P6SM SKC
  FM260300 27013KT P6SM SCT020 SCT150
  FM260500 26010KT P6SM BKN020
  FM261000 23009KT 5SM -RA BR OVC015
  FM261600 30016KT P6SM -SHRA OVC018
  FM262000 29019G24KT P6SM SCT100


Raw METAR
KSFO 251856Z 04006KT 10SM FEW200 11/04 A3036 RMK AO2 SLP280 T01110039 $
KSFO 251756Z 04003KT 10SM CLR 11/04 A3036 RMK AO2 SLP281 T01060044 10106 20050 51005 $
KSFO 251656Z 00000KT 10SM CLR 10/05 A3036 RMK AO2 SLP282 T01000050 $

METAR Board
Radar Display
Forecast Discussion

FOR SITUATIONAL AWARENESS. NOT TO BE USED FOR FLIGHT PLANNING PURPOSES.